sensor_id;sensor_type;location;lat;lon;timestamp;temperature;humidity
47310;DHT22;33046;52.270;6.832;2022-10-24T00:00:02;17.00;99.90
47310;DHT22;33046;52.270;6.832;2022-10-24T00:02:10;16.90;99.90
47310;DHT22;33046;52.270;6.832;2022-10-24T00:04:17;16.90;99.90
47310;DHT22;33046;52.270;6.832;2022-10-24T00:06:24;16.90;99.90
47310;DHT22;33046;52.270;6.832;2022-10-24T00:08:30;16.90;99.90
47310;DHT22;33046;52.270;6.832;2022-10-24T00:10:41;16.90;99.90
47310;DHT22;33046;52.270;6.832;2022-10-24T00:12:48;16.90;99.90
47310;DHT22;33046;52.270;6.832;2022-10-24T00:14:54;16.90;99.90
47310;DHT22;33046;52.270;6.832;2022-10-24T00:17:02;16.90;99.90
47310;DHT22;33046;52.270;6.832;2022-10-24T00:19:08;16.90;99.90
47310;DHT22;33046;52.270;6.832;2022-10-24T00:21:15;16.90;99.90
47310;DHT22;33046;52.270;6.832;2022-10-24T00:23:22;16.80;99.90
47310;DHT22;33046;52.270;6.832;2022-10-24T00:25:29;16.90;99.90
47310;DHT22;33046;52.270;6.832;2022-10-24T00:27:37;16.90;99.90
47310;DHT22;33046;52.270;6.832;2022-10-24T00:29:44;16.90;99.90
47310;DHT22;33046;52.270;6.832;2022-10-24T00:31:51;16.80;99.90
47310;DHT22;33046;52.270;6.832;2022-10-24T00:33:58;16.90;99.90
47310;DHT22;33046;52.270;6.832;2022-10-24T00:36:09;16.90;99.90
47310;DHT22;33046;52.270;6.832;2022-10-24T00:38:16;16.90;99.90
47310;DHT22;33046;52.270;6.832;2022-10-24T00:40:23;16.90;99.90
47310;DHT22;33046;52.270;6.832;2022-10-24T00:42:30;16.90;99.90
47310;DHT22;33046;52.270;6.832;2022-10-24T00:44:39;16.80;99.90
47310;DHT22;33046;52.270;6.832;2022-10-24T00:46:49;16.90;99.90
47310;DHT22;33046;52.270;6.832;2022-10-24T00:48:57;16.80;99.90
47310;DHT22;33046;52.270;6.832;2022-10-24T00:51:07;16.80;99.90
47310;DHT22;33046;52.270;6.832;2022-10-24T00:53:15;16.90;99.90
47310;DHT22;33046;52.270;6.832;2022-10-24T00:55:22;16.90;99.90
47310;DHT22;33046;52.270;6.832;2022-10-24T00:57:34;16.90;99.90
47310;DHT22;33046;52.270;6.832;2022-10-24T00:59:47;16.80;99.90
47310;DHT22;33046;52.270;6.832;2022-10-24T01:01:55;16.80;99.90
47310;DHT22;33046;52.270;6.832;2022-10-24T01:04:02;16.80;99.90
47310;DHT22;33046;52.270;6.832;2022-10-24T01:06:22;16.80;99.90
47310;DHT22;33046;52.270;6.832;2022-10-24T01:08:39;16.80;99.90
47310;DHT22;33046;52.270;6.832;2022-10-24T01:10:56;16.80;99.90
47310;DHT22;33046;52.270;6.832;2022-10-24T01:13:10;16.80;99.90
47310;DHT22;33046;52.270;6.832;2022-10-24T01:15:28;16.80;99.90
47310;DHT22;33046;52.270;6.832;2022-10-24T01:17:42;16.80;99.90
47310;DHT22;33046;52.270;6.832;2022-10-24T01:20:13;16.80;99.90
47310;DHT22;33046;52.270;6.832;2022-10-24T01:22:24;16.80;99.90
47310;DHT22;33046;52.270;6.832;2022-10-24T01:24:44;16.80;99.90
47310;DHT22;33046;52.270;6.832;2022-10-24T01:27:13;16.80;99.90
47310;DHT22;33046;52.270;6.832;2022-10-24T01:29:45;16.80;99.90
47310;DHT22;33046;52.270;6.832;2022-10-24T01:31:54;16.80;99.90
47310;DHT22;33046;52.270;6.832;2022-10-24T01:34:06;16.80;99.90
47310;DHT22;33046;52.270;6.832;2022-10-24T01:36:20;16.80;99.90
47310;DHT22;33046;52.270;6.832;2022-10-24T01:38:32;16.80;99.90
47310;DHT22;33046;52.270;6.832;2022-10-24T01:40:45;16.80;99.90
47310;DHT22;33046;52.270;6.832;2022-10-24T01:42:55;16.80;99.90
47310;DHT22;33046;52.270;6.832;2022-10-24T01:45:09;16.80;99.90
47310;DHT22;33046;52.270;6.832;2022-10-24T01:47:21;16.80;99.90
47310;DHT22;33046;52.270;6.832;2022-10-24T01:49:33;16.80;99.90
47310;DHT22;33046;52.270;6.832;2022-10-24T01:51:41;16.80;99.90
47310;DHT22;33046;52.270;6.832;2022-10-24T01:53:50;16.80;99.90
47310;DHT22;33046;52.270;6.832;2022-10-24T01:55:57;16.80;99.90
47310;DHT22;33046;52.270;6.832;2022-10-24T01:58:05;16.80;99.90
47310;DHT22;33046;52.270;6.832;2022-10-24T02:00:17;16.80;99.90
47310;DHT22;33046;52.270;6.832;2022-10-24T02:02:28;16.80;99.90
47310;DHT22;33046;52.270;6.832;2022-10-24T02:04:39;16.80;99.90
47310;DHT22;33046;52.270;6.832;2022-10-24T02:06:48;16.80;99.90
47310;DHT22;33046;52.270;6.832;2022-10-24T02:08:57;16.80;99.90
47310;DHT22;33046;52.270;6.832;2022-10-24T02:11:07;16.80;99.90
47310;DHT22;33046;52.270;6.832;2022-10-24T02:13:18;16.80;99.90
47310;DHT22;33046;52.270;6.832;2022-10-24T02:15:32;16.80;99.90
47310;DHT22;33046;52.270;6.832;2022-10-24T02:17:40;16.80;99.90
47310;DHT22;33046;52.270;6.832;2022-10-24T02:19:47;16.70;99.90
47310;DHT22;33046;52.270;6.832;2022-10-24T02:22:00;16.80;99.90
47310;DHT22;33046;52.270;6.832;2022-10-24T02:24:15;16.80;99.90
47310;DHT22;33046;52.270;6.832;2022-10-24T02:26:27;16.80;99.90
47310;DHT22;33046;52.270;6.832;2022-10-24T02:28:39;16.80;99.90
47310;DHT22;33046;52.270;6.832;2022-10-24T02:30:52;16.80;99.90
47310;DHT22;33046;52.270;6.832;2022-10-24T02:32:59;16.70;99.90
47310;DHT22;33046;52.270;6.832;2022-10-24T02:35:08;16.80;99.90
47310;DHT22;33046;52.270;6.832;2022-10-24T02:37:15;16.70;99.90
47310;DHT22;33046;52.270;6.832;2022-10-24T02:39:24;16.70;99.90
47310;DHT22;33046;52.270;6.832;2022-10-24T02:41:34;16.70;99.90
47310;DHT22;33046;52.270;6.832;2022-10-24T02:43:43;16.70;99.90
47310;DHT22;33046;52.270;6.832;2022-10-24T02:45:53;16.80;99.90
47310;DHT22;33046;52.270;6.832;2022-10-24T02:48:04;16.70;99.90
47310;DHT22;33046;52.270;6.832;2022-10-24T02:50:12;16.70;99.90
47310;DHT22;33046;52.270;6.832;2022-10-24T02:52:19;16.70;99.90
47310;DHT22;33046;52.270;6.832;2022-10-24T02:54:26;16.70;99.90
47310;DHT22;33046;52.270;6.832;2022-10-24T02:56:34;16.70;99.90
47310;DHT22;33046;52.270;6.832;2022-10-24T02:58:42;16.70;99.90
47310;DHT22;33046;52.270;6.832;2022-10-24T03:00:49;16.70;99.90
47310;DHT22;33046;52.270;6.832;2022-10-24T03:02:57;16.70;99.90
47310;DHT22;33046;52.270;6.832;2022-10-24T03:05:05;16.70;99.90
47310;DHT22;33046;52.270;6.832;2022-10-24T03:07:11;16.70;99.90
47310;DHT22;33046;52.270;6.832;2022-10-24T03:09:18;16.70;99.90
47310;DHT22;33046;52.270;6.832;2022-10-24T03:11:25;16.70;99.90
47310;DHT22;33046;52.270;6.832;2022-10-24T03:13:32;16.70;99.90
47310;DHT22;33046;52.270;6.832;2022-10-24T03:15:39;16.70;99.90
47310;DHT22;33046;52.270;6.832;2022-10-24T03:17:45;16.70;99.90
47310;DHT22;33046;52.270;6.832;2022-10-24T03:19:54;16.70;99.90
47310;DHT22;33046;52.270;6.832;2022-10-24T03:22:00;16.70;99.90
47310;DHT22;33046;52.270;6.832;2022-10-24T03:24:07;16.70;99.90
47310;DHT22;33046;52.270;6.832;2022-10-24T03:26:14;16.70;99.90
47310;DHT22;33046;52.270;6.832;2022-10-24T03:28:21;16.70;99.90
47310;DHT22;33046;52.270;6.832;2022-10-24T03:30:28;16.80;99.90
47310;DHT22;33046;52.270;6.832;2022-10-24T03:32:34;16.80;99.90
47310;DHT22;33046;52.270;6.832;2022-10-24T03:34:41;16.80;99.90
47310;DHT22;33046;52.270;6.832;2022-10-24T03:36:49;16.70;99.90
47310;DHT22;33046;52.270;6.832;2022-10-24T03:38:56;16.80;99.90
47310;DHT22;33046;52.270;6.832;2022-10-24T03:41:03;16.70;99.90
47310;DHT22;33046;52.270;6.832;2022-10-24T03:43:10;16.70;99.90
47310;DHT22;33046;52.270;6.832;2022-10-24T03:45:16;16.70;99.90
47310;DHT22;33046;52.270;6.832;2022-10-24T03:47:23;16.70;99.90
47310;DHT22;33046;52.270;6.832;2022-10-24T03:49:30;16.70;99.90
47310;DHT22;33046;52.270;6.832;2022-10-24T03:51:37;16.70;99.90
47310;DHT22;33046;52.270;6.832;2022-10-24T03:53:45;16.70;99.90
47310;DHT22;33046;52.270;6.832;2022-10-24T03:55:52;16.70;99.90
47310;DHT22;33046;52.270;6.832;2022-10-24T03:57:58;16.70;99.90
47310;DHT22;33046;52.270;6.832;2022-10-24T04:00:06;16.70;99.90
47310;DHT22;33046;52.270;6.832;2022-10-24T04:02:13;16.70;99.90
47310;DHT22;33046;52.270;6.832;2022-10-24T04:04:20;16.70;99.90
47310;DHT22;33046;52.270;6.832;2022-10-24T04:06:27;16.70;99.90
47310;DHT22;33046;52.270;6.832;2022-10-24T04:08:35;16.70;99.90
47310;DHT22;33046;52.270;6.832;2022-10-24T04:10:43;16.70;99.90
47310;DHT22;33046;52.270;6.832;2022-10-24T04:12:49;16.70;99.90
47310;DHT22;33046;52.270;6.832;2022-10-24T04:14:56;16.70;99.90
47310;DHT22;33046;52.270;6.832;2022-10-24T04:17:05;16.70;99.90
47310;DHT22;33046;52.270;6.832;2022-10-24T04:19:12;16.70;99.90
47310;DHT22;33046;52.270;6.832;2022-10-24T04:21:18;16.70;99.90
47310;DHT22;33046;52.270;6.832;2022-10-24T04:23:26;16.70;99.90
47310;DHT22;33046;52.270;6.832;2022-10-24T04:25:33;16.70;99.90
47310;DHT22;33046;52.270;6.832;2022-10-24T04:27:41;16.70;99.90
47310;DHT22;33046;52.270;6.832;2022-10-24T04:29:47;16.70;99.90
47310;DHT22;33046;52.270;6.832;2022-10-24T04:31:54;16.70;99.90
47310;DHT22;33046;52.270;6.832;2022-10-24T04:34:01;16.60;99.90
47310;DHT22;33046;52.270;6.832;2022-10-24T04:36:08;16.70;99.90
47310;DHT22;33046;52.270;6.832;2022-10-24T04:38:15;16.60;99.90
47310;DHT22;33046;52.270;6.832;2022-10-24T04:40:22;16.70;99.90
47310;DHT22;33046;52.270;6.832;2022-10-24T04:42:29;16.60;99.90
47310;DHT22;33046;52.270;6.832;2022-10-24T04:44:37;16.60;99.90
47310;DHT22;33046;52.270;6.832;2022-10-24T04:46:43;16.60;99.90
47310;DHT22;33046;52.270;6.832;2022-10-24T04:48:52;16.60;99.90
47310;DHT22;33046;52.270;6.832;2022-10-24T04:50:59;16.60;99.90
47310;DHT22;33046;52.270;6.832;2022-10-24T04:53:06;16.60;99.90
47310;DHT22;33046;52.270;6.832;2022-10-24T04:55:13;16.60;99.90
47310;DHT22;33046;52.270;6.832;2022-10-24T04:57:19;16.60;99.90
47310;DHT22;33046;52.270;6.832;2022-10-24T04:59:26;16.60;99.90
47310;DHT22;33046;52.270;6.832;2022-10-24T05:01:34;16.60;99.90
47310;DHT22;33046;52.270;6.832;2022-10-24T05:03:41;16.60;99.90
47310;DHT22;33046;52.270;6.832;2022-10-24T05:05:48;16.60;99.90
47310;DHT22;33046;52.270;6.832;2022-10-24T05:07:55;16.60;99.90
47310;DHT22;33046;52.270;6.832;2022-10-24T05:10:03;16.60;99.90
47310;DHT22;33046;52.270;6.832;2022-10-24T05:12:10;16.60;99.90
47310;DHT22;33046;52.270;6.832;2022-10-24T05:14:17;16.60;99.90
47310;DHT22;33046;52.270;6.832;2022-10-24T05:16:23;16.60;99.90
47310;DHT22;33046;52.270;6.832;2022-10-24T05:18:31;16.60;99.90
47310;DHT22;33046;52.270;6.832;2022-10-24T05:20:38;16.60;99.90
47310;DHT22;33046;52.270;6.832;2022-10-24T05:22:46;16.60;99.90
47310;DHT22;33046;52.270;6.832;2022-10-24T05:24:53;16.60;99.90
47310;DHT22;33046;52.270;6.832;2022-10-24T05:26:59;16.60;99.90
47310;DHT22;33046;52.270;6.832;2022-10-24T05:29:06;16.60;99.90
47310;DHT22;33046;52.270;6.832;2022-10-24T05:31:18;16.60;99.90
47310;DHT22;33046;52.270;6.832;2022-10-24T05:33:25;16.60;99.90
47310;DHT22;33046;52.270;6.832;2022-10-24T05:35:33;16.60;99.90
47310;DHT22;33046;52.270;6.832;2022-10-24T05:37:39;16.60;99.90
47310;DHT22;33046;52.270;6.832;2022-10-24T05:39:46;16.60;99.90
47310;DHT22;33046;52.270;6.832;2022-10-24T05:41:53;16.60;99.90
47310;DHT22;33046;52.270;6.832;2022-10-24T05:44:00;16.60;99.90
47310;DHT22;33046;52.270;6.832;2022-10-24T05:46:06;16.60;99.90
47310;DHT22;33046;52.270;6.832;2022-10-24T05:48:13;16.60;99.90
47310;DHT22;33046;52.270;6.832;2022-10-24T05:50:20;16.60;99.90
47310;DHT22;33046;52.270;6.832;2022-10-24T05:52:28;16.60;99.90
47310;DHT22;33046;52.270;6.832;2022-10-24T05:54:35;16.60;99.90
47310;DHT22;33046;52.270;6.832;2022-10-24T05:56:43;16.60;99.90
47310;DHT22;33046;52.270;6.832;2022-10-24T05:58:49;16.60;99.90
47310;DHT22;33046;52.270;6.832;2022-10-24T06:00:56;16.60;99.90
47310;DHT22;33046;52.270;6.832;2022-10-24T06:03:03;16.50;99.90
47310;DHT22;33046;52.270;6.832;2022-10-24T06:05:11;16.50;99.90
47310;DHT22;33046;52.270;6.832;2022-10-24T06:07:17;16.50;99.90
47310;DHT22;33046;52.270;6.832;2022-10-24T06:09:25;16.50;99.90
47310;DHT22;33046;52.270;6.832;2022-10-24T06:11:32;16.50;99.90
47310;DHT22;33046;52.270;6.832;2022-10-24T06:13:39;16.50;99.90
47310;DHT22;33046;52.270;6.832;2022-10-24T06:15:46;16.50;99.90
47310;DHT22;33046;52.270;6.832;2022-10-24T06:17:53;16.60;99.90
47310;DHT22;33046;52.270;6.832;2022-10-24T06:20:00;16.60;99.90
47310;DHT22;33046;52.270;6.832;2022-10-24T06:22:07;16.50;99.90
47310;DHT22;33046;52.270;6.832;2022-10-24T06:24:14;16.60;99.90
47310;DHT22;33046;52.270;6.832;2022-10-24T06:26:23;16.60;99.90
47310;DHT22;33046;52.270;6.832;2022-10-24T06:28:30;16.60;99.90
47310;DHT22;33046;52.270;6.832;2022-10-24T06:30:38;16.50;99.90
47310;DHT22;33046;52.270;6.832;2022-10-24T06:32:46;16.60;99.90
47310;DHT22;33046;52.270;6.832;2022-10-24T06:34:53;16.60;99.90
47310;DHT22;33046;52.270;6.832;2022-10-24T06:37:00;16.60;99.90
47310;DHT22;33046;52.270;6.832;2022-10-24T06:39:07;16.60;99.90
47310;DHT22;33046;52.270;6.832;2022-10-24T06:41:14;16.60;99.90
47310;DHT22;33046;52.270;6.832;2022-10-24T06:43:22;16.50;99.90
47310;DHT22;33046;52.270;6.832;2022-10-24T06:45:29;16.60;99.90
47310;DHT22;33046;52.270;6.832;2022-10-24T06:47:35;16.60;99.90
47310;DHT22;33046;52.270;6.832;2022-10-24T06:49:42;16.60;99.90
47310;DHT22;33046;52.270;6.832;2022-10-24T06:51:49;16.60;99.90
47310;DHT22;33046;52.270;6.832;2022-10-24T06:53:56;16.60;99.90
47310;DHT22;33046;52.270;6.832;2022-10-24T06:56:04;16.60;99.90
47310;DHT22;33046;52.270;6.832;2022-10-24T06:58:11;16.60;99.90
47310;DHT22;33046;52.270;6.832;2022-10-24T07:00:19;16.60;99.90
47310;DHT22;33046;52.270;6.832;2022-10-24T07:02:26;16.60;99.90
47310;DHT22;33046;52.270;6.832;2022-10-24T07:04:33;16.60;99.90
47310;DHT22;33046;52.270;6.832;2022-10-24T07:06:39;16.60;99.90
47310;DHT22;33046;52.270;6.832;2022-10-24T07:08:47;16.60;99.90
47310;DHT22;33046;52.270;6.832;2022-10-24T07:10:53;16.60;99.90
47310;DHT22;33046;52.270;6.832;2022-10-24T07:13:00;16.60;99.90
47310;DHT22;33046;52.270;6.832;2022-10-24T07:15:07;16.60;99.90
47310;DHT22;33046;52.270;6.832;2022-10-24T07:17:18;16.70;99.90
47310;DHT22;33046;52.270;6.832;2022-10-24T07:19:25;16.70;99.90
47310;DHT22;33046;52.270;6.832;2022-10-24T07:21:32;16.70;99.90
47310;DHT22;33046;52.270;6.832;2022-10-24T07:23:40;16.70;99.90
47310;DHT22;33046;52.270;6.832;2022-10-24T07:25:46;16.70;99.90
47310;DHT22;33046;52.270;6.832;2022-10-24T07:27:53;16.80;99.90
47310;DHT22;33046;52.270;6.832;2022-10-24T07:30:00;16.80;99.90
47310;DHT22;33046;52.270;6.832;2022-10-24T07:32:07;16.80;99.90
47310;DHT22;33046;52.270;6.832;2022-10-24T07:34:15;16.90;99.90
47310;DHT22;33046;52.270;6.832;2022-10-24T07:36:24;17.00;99.90
47310;DHT22;33046;52.270;6.832;2022-10-24T07:38:30;17.00;99.90
47310;DHT22;33046;52.270;6.832;2022-10-24T07:40:37;17.00;99.90
47310;DHT22;33046;52.270;6.832;2022-10-24T07:42:45;17.10;99.90
47310;DHT22;33046;52.270;6.832;2022-10-24T07:44:51;17.20;99.90
47310;DHT22;33046;52.270;6.832;2022-10-24T07:46:58;17.20;99.90
47310;DHT22;33046;52.270;6.832;2022-10-24T07:49:05;17.30;99.90
47310;DHT22;33046;52.270;6.832;2022-10-24T07:51:14;17.30;99.90
47310;DHT22;33046;52.270;6.832;2022-10-24T07:53:21;17.30;99.90
47310;DHT22;33046;52.270;6.832;2022-10-24T07:55:28;17.40;99.90
47310;DHT22;33046;52.270;6.832;2022-10-24T07:57:35;17.40;99.90
47310;DHT22;33046;52.270;6.832;2022-10-24T07:59:42;17.40;99.90
47310;DHT22;33046;52.270;6.832;2022-10-24T08:01:48;17.50;99.90
47310;DHT22;33046;52.270;6.832;2022-10-24T08:03:56;17.50;99.90
47310;DHT22;33046;52.270;6.832;2022-10-24T08:06:04;17.60;99.90
47310;DHT22;33046;52.270;6.832;2022-10-24T08:08:12;17.60;99.90
47310;DHT22;33046;52.270;6.832;2022-10-24T08:10:33;17.60;99.90
47310;DHT22;33046;52.270;6.832;2022-10-24T08:12:40;17.70;99.90
47310;DHT22;33046;52.270;6.832;2022-10-24T08:14:47;17.70;99.90
47310;DHT22;33046;52.270;6.832;2022-10-24T08:16:54;17.70;99.90
47310;DHT22;33046;52.270;6.832;2022-10-24T08:19:00;17.70;99.90
47310;DHT22;33046;52.270;6.832;2022-10-24T08:21:10;17.70;99.90
47310;DHT22;33046;52.270;6.832;2022-10-24T08:23:18;17.60;99.90
47310;DHT22;33046;52.270;6.832;2022-10-24T08:25:27;17.70;99.90
47310;DHT22;33046;52.270;6.832;2022-10-24T08:27:34;17.70;99.90
47310;DHT22;33046;52.270;6.832;2022-10-24T08:29:41;17.70;99.90
47310;DHT22;33046;52.270;6.832;2022-10-24T08:31:49;17.70;99.90
47310;DHT22;33046;52.270;6.832;2022-10-24T08:33:56;17.80;99.90
47310;DHT22;33046;52.270;6.832;2022-10-24T08:36:05;17.80;99.90
47310;DHT22;33046;52.270;6.832;2022-10-24T08:38:13;17.80;99.90
47310;DHT22;33046;52.270;6.832;2022-10-24T08:40:21;17.90;99.90
47310;DHT22;33046;52.270;6.832;2022-10-24T08:42:27;17.90;99.90
47310;DHT22;33046;52.270;6.832;2022-10-24T08:44:36;18.00;99.90
47310;DHT22;33046;52.270;6.832;2022-10-24T08:46:48;18.00;99.90
47310;DHT22;33046;52.270;6.832;2022-10-24T08:49:00;18.00;99.90
47310;DHT22;33046;52.270;6.832;2022-10-24T08:51:16;18.00;99.90
47310;DHT22;33046;52.270;6.832;2022-10-24T08:53:27;18.00;99.90
47310;DHT22;33046;52.270;6.832;2022-10-24T08:55:38;18.00;99.90
47310;DHT22;33046;52.270;6.832;2022-10-24T08:58:00;18.00;99.90
47310;DHT22;33046;52.270;6.832;2022-10-24T09:00:16;18.00;99.70
47310;DHT22;33046;52.270;6.832;2022-10-24T09:02:25;18.00;99.90
47310;DHT22;33046;52.270;6.832;2022-10-24T09:04:35;18.00;99.90
47310;DHT22;33046;52.270;6.832;2022-10-24T09:06:45;18.00;99.60
47310;DHT22;33046;52.270;6.832;2022-10-24T09:08:53;18.00;99.70
47310;DHT22;33046;52.270;6.832;2022-10-24T09:11:04;18.00;99.50
47310;DHT22;33046;52.270;6.832;2022-10-24T09:13:12;18.00;99.50
47310;DHT22;33046;52.270;6.832;2022-10-24T09:15:23;17.90;99.90
47310;DHT22;33046;52.270;6.832;2022-10-24T09:17:33;18.00;99.90
47310;DHT22;33046;52.270;6.832;2022-10-24T09:19:40;18.00;99.80
47310;DHT22;33046;52.270;6.832;2022-10-24T09:21:51;18.00;99.90
47310;DHT22;33046;52.270;6.832;2022-10-24T09:23:58;18.00;99.90
47310;DHT22;33046;52.270;6.832;2022-10-24T09:26:14;18.00;99.90
47310;DHT22;33046;52.270;6.832;2022-10-24T09:28:22;18.00;99.90
47310;DHT22;33046;52.270;6.832;2022-10-24T09:30:29;18.00;99.90
47310;DHT22;33046;52.270;6.832;2022-10-24T09:32:36;18.00;99.90
47310;DHT22;33046;52.270;6.832;2022-10-24T09:34:43;18.00;99.90
47310;DHT22;33046;52.270;6.832;2022-10-24T09:36:51;18.10;99.90
47310;DHT22;33046;52.270;6.832;2022-10-24T09:39:22;18.10;99.90
47310;DHT22;33046;52.270;6.832;2022-10-24T09:41:30;18.20;99.90
47310;DHT22;33046;52.270;6.832;2022-10-24T09:43:44;18.20;99.90
47310;DHT22;33046;52.270;6.832;2022-10-24T09:46:00;18.20;99.90
47310;DHT22;33046;52.270;6.832;2022-10-24T09:48:18;18.20;99.90
47310;DHT22;33046;52.270;6.832;2022-10-24T09:50:31;18.30;99.90
47310;DHT22;33046;52.270;6.832;2022-10-24T09:52:39;18.30;99.90
47310;DHT22;33046;52.270;6.832;2022-10-24T09:54:46;18.30;99.90
47310;DHT22;33046;52.270;6.832;2022-10-24T09:57:15;18.40;99.90
47310;DHT22;33046;52.270;6.832;2022-10-24T09:59:37;18.40;99.90
47310;DHT22;33046;52.270;6.832;2022-10-24T10:01:44;18.40;99.90
47310;DHT22;33046;52.270;6.832;2022-10-24T10:04:00;18.40;99.90
47310;DHT22;33046;52.270;6.832;2022-10-24T10:06:15;18.50;99.90
47310;DHT22;33046;52.270;6.832;2022-10-24T10:08:24;18.50;99.90
47310;DHT22;33046;52.270;6.832;2022-10-24T10:10:34;18.50;99.90
47310;DHT22;33046;52.270;6.832;2022-10-24T10:12:44;18.50;99.90
47310;DHT22;33046;52.270;6.832;2022-10-24T10:14:53;18.60;99.90
47310;DHT22;33046;52.270;6.832;2022-10-24T10:17:02;18.60;99.60
47310;DHT22;33046;52.270;6.832;2022-10-24T10:19:14;18.70;99.70
47310;DHT22;33046;52.270;6.832;2022-10-24T10:21:21;18.60;99.40
47310;DHT22;33046;52.270;6.832;2022-10-24T10:23:30;18.60;98.30
47310;DHT22;33046;52.270;6.832;2022-10-24T10:25:36;18.70;98.80
47310;DHT22;33046;52.270;6.832;2022-10-24T10:27:49;18.70;98.50
47310;DHT22;33046;52.270;6.832;2022-10-24T10:30:23;18.80;98.70
47310;DHT22;33046;52.270;6.832;2022-10-24T10:32:36;18.70;98.60
47310;DHT22;33046;52.270;6.832;2022-10-24T10:34:51;18.70;98.40
47310;DHT22;33046;52.270;6.832;2022-10-24T10:37:18;18.70;98.00
47310;DHT22;33046;52.270;6.832;2022-10-24T10:39:37;18.70;97.80
47310;DHT22;33046;52.270;6.832;2022-10-24T10:41:48;18.70;97.70
47310;DHT22;33046;52.270;6.832;2022-10-24T10:44:10;18.70;97.30
47310;DHT22;33046;52.270;6.832;2022-10-24T10:46:26;18.70;97.70
47310;DHT22;33046;52.270;6.832;2022-10-24T10:48:45;18.80;97.30
47310;DHT22;33046;52.270;6.832;2022-10-24T10:51:00;18.80;97.40
47310;DHT22;33046;52.270;6.832;2022-10-24T10:53:19;18.80;97.40
47310;DHT22;33046;52.270;6.832;2022-10-24T10:55:32;18.80;97.20
47310;DHT22;33046;52.270;6.832;2022-10-24T10:57:44;18.80;97.20
47310;DHT22;33046;52.270;6.832;2022-10-24T10:59:59;18.80;97.10
47310;DHT22;33046;52.270;6.832;2022-10-24T11:02:26;18.80;97.00
47310;DHT22;33046;52.270;6.832;2022-10-24T11:04:40;18.80;97.00
47310;DHT22;33046;52.270;6.832;2022-10-24T11:06:50;18.70;97.10
47310;DHT22;33046;52.270;6.832;2022-10-24T11:09:15;18.70;97.00
47310;DHT22;33046;52.270;6.832;2022-10-24T11:11:27;18.70;96.70
47310;DHT22;33046;52.270;6.832;2022-10-24T11:13:38;18.80;97.30
47310;DHT22;33046;52.270;6.832;2022-10-24T11:15:49;18.70;96.80
47310;DHT22;33046;52.270;6.832;2022-10-24T11:18:01;18.70;96.70
47310;DHT22;33046;52.270;6.832;2022-10-24T11:20:16;18.70;97.30
47310;DHT22;33046;52.270;6.832;2022-10-24T11:22:27;18.80;97.00
47310;DHT22;33046;52.270;6.832;2022-10-24T11:24:42;18.80;96.60
47310;DHT22;33046;52.270;6.832;2022-10-24T11:26:52;18.80;96.60
47310;DHT22;33046;52.270;6.832;2022-10-24T11:29:05;18.80;96.60
47310;DHT22;33046;52.270;6.832;2022-10-24T11:31:20;18.80;96.90
47310;DHT22;33046;52.270;6.832;2022-10-24T11:33:31;18.90;96.90
47310;DHT22;33046;52.270;6.832;2022-10-24T11:35:50;18.90;96.90
47310;DHT22;33046;52.270;6.832;2022-10-24T11:38:00;19.00;97.10
47310;DHT22;33046;52.270;6.832;2022-10-24T11:40:11;18.90;96.40
47310;DHT22;33046;52.270;6.832;2022-10-24T11:42:21;18.90;96.40
47310;DHT22;33046;52.270;6.832;2022-10-24T11:44:40;19.00;96.30
47310;DHT22;33046;52.270;6.832;2022-10-24T11:46:58;19.00;95.80
47310;DHT22;33046;52.270;6.832;2022-10-24T11:49:15;19.00;96.10
47310;DHT22;33046;52.270;6.832;2022-10-24T11:51:28;19.00;96.10
47310;DHT22;33046;52.270;6.832;2022-10-24T11:53:48;19.00;96.10
47310;DHT22;33046;52.270;6.832;2022-10-24T11:56:00;19.00;96.20
47310;DHT22;33046;52.270;6.832;2022-10-24T11:58:12;19.10;96.00
47310;DHT22;33046;52.270;6.832;2022-10-24T12:00:23;19.00;95.90
47310;DHT22;33046;52.270;6.832;2022-10-24T12:03:03;19.10;95.80
47310;DHT22;33046;52.270;6.832;2022-10-24T12:05:48;19.10;96.20
47310;DHT22;33046;52.270;6.832;2022-10-24T12:08:39;19.20;96.00
47310;DHT22;33046;52.270;6.832;2022-10-24T12:11:04;19.20;95.80
47310;DHT22;33046;52.270;6.832;2022-10-24T12:13:28;19.20;95.30
47310;DHT22;33046;52.270;6.832;2022-10-24T12:15:46;19.20;95.70
47310;DHT22;33046;52.270;6.832;2022-10-24T12:18:09;19.20;95.50
47310;DHT22;33046;52.270;6.832;2022-10-24T12:20:19;19.20;95.50
47310;DHT22;33046;52.270;6.832;2022-10-24T12:22:30;19.30;95.30
47310;DHT22;33046;52.270;6.832;2022-10-24T12:24:38;19.30;95.30
47310;DHT22;33046;52.270;6.832;2022-10-24T12:26:53;19.30;95.30
47310;DHT22;33046;52.270;6.832;2022-10-24T12:29:03;19.30;95.10
47310;DHT22;33046;52.270;6.832;2022-10-24T12:31:18;19.30;94.80
47310;DHT22;33046;52.270;6.832;2022-10-24T12:33:28;19.30;94.70
47310;DHT22;33046;52.270;6.832;2022-10-24T12:35:46;19.30;94.80
47310;DHT22;33046;52.270;6.832;2022-10-24T12:37:53;19.30;94.90
47310;DHT22;33046;52.270;6.832;2022-10-24T12:40:45;19.30;95.10
47310;DHT22;33046;52.270;6.832;2022-10-24T12:43:13;19.30;95.00
47310;DHT22;33046;52.270;6.832;2022-10-24T12:45:27;19.30;95.60
47310;DHT22;33046;52.270;6.832;2022-10-24T12:47:36;19.30;95.80
47310;DHT22;33046;52.270;6.832;2022-10-24T12:49:45;19.30;96.10
47310;DHT22;33046;52.270;6.832;2022-10-24T12:51:54;19.30;96.30
47310;DHT22;33046;52.270;6.832;2022-10-24T12:54:12;19.30;96.50
47310;DHT22;33046;52.270;6.832;2022-10-24T12:56:21;19.30;96.50
47310;DHT22;33046;52.270;6.832;2022-10-24T12:58:29;19.20;96.70
47310;DHT22;33046;52.270;6.832;2022-10-24T13:00:38;19.20;96.60
47310;DHT22;33046;52.270;6.832;2022-10-24T13:03:04;19.20;98.10
47310;DHT22;33046;52.270;6.832;2022-10-24T13:05:26;19.20;99.10
47310;DHT22;33046;52.270;6.832;2022-10-24T13:07:45;19.10;99.60
47310;DHT22;33046;52.270;6.832;2022-10-24T13:10:16;19.00;99.90
47310;DHT22;33046;52.270;6.832;2022-10-24T13:12:40;19.00;99.90
47310;DHT22;33046;52.270;6.832;2022-10-24T13:15:02;18.90;99.90
47310;DHT22;33046;52.270;6.832;2022-10-24T13:17:19;18.90;99.90
47310;DHT22;33046;52.270;6.832;2022-10-24T13:19:29;18.90;99.90
47310;DHT22;33046;52.270;6.832;2022-10-24T13:21:45;18.80;99.90
47310;DHT22;33046;52.270;6.832;2022-10-24T13:23:53;18.80;99.90
47310;DHT22;33046;52.270;6.832;2022-10-24T13:26:37;18.80;99.90
47310;DHT22;33046;52.270;6.832;2022-10-24T13:28:44;18.80;99.90
47310;DHT22;33046;52.270;6.832;2022-10-24T13:33:43;18.80;99.90
47310;DHT22;33046;52.270;6.832;2022-10-24T13:35:50;18.80;99.90
47310;DHT22;33046;52.270;6.832;2022-10-24T13:37:59;18.80;99.90
47310;DHT22;33046;52.270;6.832;2022-10-24T13:40:09;18.80;99.90
47310;DHT22;33046;52.270;6.832;2022-10-24T13:42:25;18.80;99.90
47310;DHT22;33046;52.270;6.832;2022-10-24T13:44:40;18.80;99.90
47310;DHT22;33046;52.270;6.832;2022-10-24T13:46:51;18.70;99.90